createdAt,value
2019-03-27T00:04:13.160Z,98708.48
2019-03-27T00:09:44.155Z,98719.30
2019-03-27T00:15:12.982Z,98715.23
2019-03-27T00:20:45.541Z,98713.95
2019-03-27T00:26:08.027Z,98713.28
2019-03-27T00:31:31.137Z,98715.11
2019-03-27T00:36:54.203Z,98717.51
2019-03-27T00:42:19.809Z,98720.71
2019-03-27T00:47:43.156Z,98715.63
2019-03-27T00:53:07.942Z,98706.57
2019-03-27T00:58:34.822Z,98713.73
2019-03-27T01:03:58.537Z,98713.80
2019-03-27T01:09:22.483Z,98713.62
2019-03-27T01:14:44.464Z,98716.87
2019-03-27T01:20:07.777Z,98717.55
2019-03-27T01:25:31.705Z,98714.44
2019-03-27T01:30:55.155Z,98714.94
2019-03-27T01:36:17.585Z,98718.55
2019-03-27T01:41:41.431Z,98725.87
2019-03-27T01:47:04.591Z,98727.47
2019-03-27T01:52:27.215Z,98729.28
2019-03-27T01:57:51.237Z,98729.64
2019-03-27T02:03:15.125Z,98737.68
2019-03-27T02:08:37.206Z,98736.55
2019-03-27T02:13:59.344Z,98738.01
2019-03-27T02:19:23.016Z,98742.25
2019-03-27T02:24:45.732Z,98742.19
2019-03-27T02:30:08.646Z,98747.86
2019-03-27T02:35:30.945Z,98756.97
2019-03-27T02:40:56.052Z,98763.47
2019-03-27T02:46:24.909Z,98757.61
2019-03-27T02:51:47.250Z,98757.64
2019-03-27T02:57:11.173Z,98768.32
2019-03-27T03:02:35.076Z,98769.04
2019-03-27T03:07:57.711Z,98765.54
2019-03-27T03:13:23.617Z,98772.32
2019-03-27T03:18:46.586Z,98776.07
2019-03-27T03:24:10.634Z,98793.43
2019-03-27T03:29:35.971Z,98803.75
2019-03-27T03:34:59.397Z,98796.25
2019-03-27T03:40:21.875Z,98797.68
2019-03-27T03:45:44.541Z,98812.16
2019-03-27T03:51:07.936Z,98814.28
2019-03-27T03:56:32.522Z,98815.06
2019-03-27T04:01:55.314Z,98830.36
2019-03-27T04:07:18.621Z,98834.83
2019-03-27T04:12:42.432Z,98822.28
2019-03-27T04:18:16.299Z,98825.39
2019-03-27T04:23:39.792Z,98839.39
2019-03-27T04:29:12.985Z,98827.77
2019-03-27T04:34:35.526Z,98832.70
2019-03-27T04:39:58.436Z,98853.88
2019-03-27T04:45:21.198Z,98845.61
2019-03-27T04:50:44.161Z,98857.27
2019-03-27T04:56:07.526Z,98862.86
2019-03-27T05:01:32.528Z,98870.58
2019-03-27T05:06:54.538Z,98874.91
2019-03-27T05:12:16.566Z,98888.45
2019-03-27T05:17:45.990Z,98893.30
2019-03-27T05:23:02.550Z,98896.15
2019-03-27T05:28:24.949Z,98890.57
2019-03-27T05:33:46.937Z,98887.17
2019-03-27T05:39:09.088Z,98898.05
2019-03-27T05:44:31.366Z,98899.22
2019-03-27T05:49:53.530Z,98909.58
2019-03-27T05:55:16.745Z,98908.30
2019-03-27T06:00:39.380Z,98910.63
2019-03-27T06:06:01.624Z,98908.66
2019-03-27T06:11:24.694Z,98913.86
2019-03-27T06:16:47.536Z,98928.18
2019-03-27T06:22:09.912Z,98932.86
2019-03-27T06:27:32.651Z,98921.02
2019-03-27T06:32:55.574Z,98918.14
2019-03-27T06:38:19.008Z,98924.42
2019-03-27T06:43:42.358Z,98915.48
2019-03-27T06:49:06.329Z,98926.44
2019-03-27T06:54:28.134Z,98878.64
2019-03-27T06:59:50.433Z,98934.38
2019-03-27T07:05:14.119Z,98943.95
2019-03-27T07:10:36.421Z,98948.08
2019-03-27T07:15:58.545Z,98958.80
2019-03-27T07:21:20.914Z,98969.88
2019-03-27T07:26:42.960Z,98953.88
2019-03-27T07:32:04.892Z,98962.76
2019-03-27T07:37:28.410Z,98966.05
2019-03-27T07:42:50.853Z,98970.61
2019-03-27T07:48:13.024Z,98966.70
2019-03-27T07:53:35.860Z,98980.69
2019-03-27T07:58:59.777Z,98974.00
2019-03-27T08:04:21.684Z,98976.70
2019-03-27T08:09:44.664Z,98981.78
2019-03-27T08:15:09.615Z,98981.45
2019-03-27T08:20:31.558Z,98982.31
2019-03-27T08:25:53.600Z,98974.02
2019-03-27T08:31:16.756Z,98978.92
2019-03-27T08:36:38.809Z,98971.53
2019-03-27T08:42:01.047Z,98986.17
2019-03-27T08:47:23.504Z,98989.31
2019-03-27T08:52:45.730Z,98974.91
2019-03-27T08:58:07.453Z,98977.70
2019-03-27T09:03:29.915Z,98960.50
2019-03-27T09:08:52.100Z,98980.14
2019-03-27T09:14:14.239Z,98966.05
2019-03-27T09:19:36.546Z,98966.64
2019-03-27T09:24:59.988Z,98961.29
2019-03-27T09:30:22.601Z,98968.16
2019-03-27T09:35:44.996Z,98970.56
2019-03-27T09:41:07.692Z,98978.08
2019-03-27T09:46:29.882Z,98969.65
2019-03-27T09:51:52.102Z,98978.14
2019-03-27T09:57:18.431Z,98966.08
2019-03-27T10:02:40.618Z,98978.00
2019-03-27T10:08:02.978Z,98967.58
2019-03-27T10:13:25.963Z,98963.30
2019-03-27T10:18:49.301Z,98958.11
2019-03-27T10:24:12.116Z,98946.31
2019-03-27T10:29:44.626Z,98939.41
2019-03-27T10:35:07.794Z,98940.42
2019-03-27T10:40:30.116Z,98933.95
2019-03-27T10:45:51.973Z,98934.20
2019-03-27T10:51:15.072Z,98934.41
2019-03-27T10:56:38.445Z,98933.24
2019-03-27T11:02:00.868Z,98923.70
2019-03-27T11:07:23.859Z,98907.20
2019-03-27T11:12:47.479Z,98917.64
2019-03-27T11:18:12.217Z,98907.59
2019-03-27T11:23:36.368Z,98891.97
2019-03-27T11:28:59.292Z,98896.20
2019-03-27T11:34:21.843Z,98904.48
2019-03-27T11:39:43.990Z,98887.81
2019-03-27T11:45:08.452Z,98892.17
2019-03-27T11:50:43.791Z,98878.21
2019-03-27T11:55:55.408Z,98901.20
2019-03-27T12:01:18.091Z,98895.95
2019-03-27T12:06:40.750Z,98893.98
2019-03-27T12:12:03.719Z,98887.46
2019-03-27T12:17:26.831Z,98897.06
2019-03-27T12:22:57.718Z,98897.83
2019-03-27T12:28:13.854Z,98901.23
2019-03-27T12:33:36.744Z,98892.80
2019-03-27T12:38:59.035Z,98890.54
2019-03-27T12:44:21.258Z,98893.38
2019-03-27T12:49:44.456Z,98896.47
2019-03-27T12:55:07.495Z,98891.17
2019-03-27T13:00:29.715Z,98894.05
2019-03-27T13:05:56.712Z,98894.88
2019-03-27T13:11:19.765Z,98893.84
2019-03-27T13:16:43.570Z,98909.81
2019-03-27T13:22:06.208Z,98895.47
2019-03-27T13:27:30.444Z,98890.54
2019-03-27T13:32:56.956Z,98897.59
2019-03-27T13:38:01.589Z,98900.67
2019-03-27T13:43:05.464Z,98910.48
2019-03-27T13:48:28.275Z,98904.78
2019-03-27T13:54:00.994Z,98895.62
2019-03-27T13:59:23.785Z,98891.41
2019-03-27T14:04:46.800Z,98886.03
2019-03-27T14:10:09.375Z,98898.20
2019-03-27T14:15:31.976Z,98882.66
2019-03-27T14:20:55.109Z,98920.76
2019-03-27T14:26:17.827Z,98903.05
2019-03-27T14:31:42.182Z,98895.91
2019-03-27T14:37:05.360Z,98920.52
2019-03-27T14:42:29.908Z,98921.03
2019-03-27T14:47:52.837Z,98934.91
2019-03-27T14:53:14.760Z,98933.05
2019-03-27T14:58:37.347Z,98925.77
2019-03-27T15:04:02.334Z,98935.94
2019-03-27T15:09:26.005Z,98931.53
2019-03-27T15:14:48.951Z,98918.81
2019-03-27T15:20:12.682Z,98949.41
2019-03-27T15:25:35.059Z,98954.01
2019-03-27T15:30:39.602Z,98955.17
2019-03-27T15:35:44.728Z,98952.36
2019-03-27T15:41:07.339Z,98954.11
2019-03-27T15:46:11.027Z,98926.72
2019-03-27T15:51:14.645Z,98984.70
2019-03-27T15:56:18.091Z,98988.16
2019-03-27T16:01:21.719Z,98987.81
2019-03-27T16:13:23.485Z,98992.73
2019-03-27T16:59:27.535Z,99025.99
2019-03-27T17:04:49.952Z,99048.42
2019-03-27T17:11:15.782Z,99047.92
2019-03-27T17:16:43.725Z,99042.38
2019-03-27T17:22:18.550Z,99057.09
2019-03-27T17:27:29.720Z,99061.91
2019-03-27T17:32:51.914Z,99074.81
2019-03-27T17:38:19.685Z,99079.16
2019-03-27T17:43:48.250Z,99084.45
2019-03-27T17:49:10.501Z,99103.94
2019-03-27T17:54:32.344Z,99113.33
2019-03-27T18:00:22.154Z,99109.22
2019-03-27T18:05:52.401Z,99115.16
2019-03-27T18:11:18.673Z,99126.45
2019-03-27T18:16:42.288Z,99122.82
2019-03-27T18:22:31.609Z,99113.77
2019-03-27T18:28:59.379Z,99175.92
2019-03-27T18:41:27.044Z,99158.31
2019-03-27T18:54:27.259Z,99191.01
2019-03-27T19:00:22.996Z,99207.43
2019-03-27T19:06:46.309Z,99208.56
2019-03-27T19:12:37.535Z,99227.16
2019-03-27T19:18:00.316Z,99233.88
2019-03-27T23:03:30.251Z,99471.12
2019-03-27T23:54:55.561Z,99504.83
